Time;durP1;ratioP1;P1;durP2;ratioP2;P2;SDS_P1;SDS_P2;PMS_P1;PMS_P2;Temp;Humidity;BMP_temperature;BMP_pressure;BME280_temperature;BME280_humidity;BME280_pressure;Samples;Min_cycle;Max_cycle;Signal;HPM_P1;HPM_P2
2022/03/12 00:00:43;;;;;;;29.88;15.45;;;11.40;54.20;;;;;;5106618;28;20185;-69
2022/03/12 00:03:09;;;;;;;26.17;14.50;;;11.30;54.10;;;;;;5109986;28;20181;-71
2022/03/12 00:05:36;;;;;;;30.67;14.82;;;11.30;54.50;;;;;;5108760;28;20185;-70
2022/03/12 00:08:05;;;;;;;29.17;15.18;;;11.30;54.60;;;;;;5108083;28;20565;-69
2022/03/12 00:10:34;;;;;;;31.83;15.02;;;11.30;54.70;;;;;;5108799;28;20244;-70
2022/03/12 00:13:01;;;;;;;26.38;15.07;;;11.30;55.00;;;;;;5110012;28;20302;-71
2022/03/12 00:15:31;;;;;;;30.85;15.15;;;11.20;55.30;;;;;;5108765;28;20650;-69
2022/03/12 00:17:57;;;;;;;28.52;14.77;;;11.20;55.40;;;;;;5108664;28;20181;-70
2022/03/12 00:20:28;;;;;;;33.88;16.00;;;11.20;55.70;;;;;;5108006;28;20193;-69
2022/03/12 00:22:56;;;;;;;35.78;15.32;;;11.20;56.30;;;;;;5109476;28;20673;-69
2022/03/12 00:25:24;;;;;;;24.52;14.13;;;11.20;57.10;;;;;;5107192;28;20047;-72
2022/03/12 00:27:51;;;;;;;28.50;15.93;;;11.20;57.10;;;;;;5106343;28;20185;-71
2022/03/12 00:30:19;;;;;;;23.15;15.00;;;11.10;57.40;;;;;;5105398;28;20649;-71
2022/03/12 00:32:45;;;;;;;28.70;15.70;;;11.20;57.60;;;;;;5090135;28;20181;-70
2022/03/12 00:35:14;;;;;;;27.60;15.32;;;11.20;57.80;;;;;;5106264;28;20277;-71
2022/03/12 00:37:39;;;;;;;26.65;15.48;;;11.10;58.00;;;;;;5107600;27;20633;-70
2022/03/12 00:40:06;;;;;;;27.05;15.00;;;11.10;57.90;;;;;;5105920;28;20193;-71
2022/03/12 00:42:32;;;;;;;29.38;15.77;;;11.10;58.00;;;;;;5108777;28;20732;-70
2022/03/12 00:44:58;;;;;;;28.77;16.05;;;11.10;58.10;;;;;;5106344;28;20324;-70
2022/03/12 00:47:26;;;;;;;29.05;16.05;;;11.10;58.20;;;;;;5108821;28;20634;-71
2022/03/12 00:49:52;;;;;;;24.52;14.88;;;11.10;58.30;;;;;;5107648;28;20272;-70
2022/03/12 00:52:18;;;;;;;24.85;15.07;;;11.00;58.40;;;;;;5108129;28;20196;-69
2022/03/12 00:54:44;;;;;;;29.63;16.08;;;11.00;58.70;;;;;;5108636;28;20177;-70
2022/03/12 00:57:11;;;;;;;29.30;15.98;;;11.00;59.00;;;;;;5107031;28;20184;-70
2022/03/12 00:59:41;;;;;;;24.27;15.23;;;11.00;59.20;;;;;;5105403;28;20650;-69
2022/03/12 01:02:13;;;;;;;28.83;15.65;;;10.90;59.40;;;;;;5108075;28;20621;-70
2022/03/12 01:04:39;;;;;;;26.27;15.43;;;11.00;59.80;;;;;;5106538;28;20186;-70
2022/03/12 01:07:05;;;;;;;27.05;15.57;;;11.00;60.30;;;;;;5105658;28;20189;-70
2022/03/12 01:09:30;;;;;;;26.55;15.73;;;10.90;60.50;;;;;;5105462;28;20192;-70
2022/03/12 01:11:56;;;;;;;28.27;15.60;;;10.90;61.10;;;;;;5108611;28;20181;-70
2022/03/12 01:14:25;;;;;;;28.50;16.70;;;10.90;61.50;;;;;;5104297;28;20237;-71
2022/03/12 01:16:55;;;;;;;26.77;15.82;;;10.90;62.80;;;;;;5109171;28;20217;-70
2022/03/12 01:19:21;;;;;;;27.52;16.13;;;10.80;63.60;;;;;;5106294;28;20181;-69
2022/03/12 01:21:46;;;;;;;28.90;19.42;;;10.80;64.60;;;;;;5105724;28;20432;-69
2022/03/12 01:24:12;;;;;;;32.83;18.60;;;11.10;72.80;;;;;;5104311;28;20185;-68
2022/03/12 01:26:39;;;;;;;29.67;17.85;;;10.90;72.50;;;;;;5106922;28;20672;-69
2022/03/12 01:29:06;;;;;;;30.33;18.23;;;10.70;72.60;;;;;;5106354;28;20335;-69
2022/03/12 01:31:31;;;;;;;30.23;18.00;;;10.50;72.70;;;;;;5108602;28;20181;-70
2022/03/12 01:33:57;;;;;;;30.95;18.73;;;10.40;73.30;;;;;;5102455;28;20193;-69
2022/03/12 01:36:23;;;;;;;30.98;18.23;;;10.40;74.50;;;;;;5106240;28;20365;-69
2022/03/12 01:38:53;;;;;;;28.70;17.98;;;10.40;74.60;;;;;;5105522;28;20200;-69
2022/03/12 01:41:24;;;;;;;34.67;18.67;;;10.30;75.10;;;;;;5104775;28;20217;-70
2022/03/12 01:43:53;;;;;;;28.27;18.30;;;10.30;75.40;;;;;;5106496;28;20232;-70
2022/03/12 01:46:31;;;;;;;32.80;19.02;;;10.20;76.50;;;;;;5107330;28;20521;-70
2022/03/12 01:48:59;;;;;;;29.35;17.90;;;10.20;77.10;;;;;;5105450;28;20208;-71
2022/03/12 01:51:28;;;;;;;30.15;18.77;;;10.20;77.70;;;;;;5109356;28;20185;-70
2022/03/12 01:53:54;;;;;;;30.45;18.45;;;10.20;78.10;;;;;;5105576;28;20189;-68
2022/03/12 01:56:25;;;;;;;27.73;17.88;;;10.20;78.20;;;;;;5105637;28;20305;-69
2022/03/12 01:58:51;;;;;;;33.25;18.15;;;10.20;78.50;;;;;;5104820;28;20199;-69
2022/03/12 02:01:18;;;;;;;30.92;18.25;;;10.20;78.80;;;;;;5091043;28;20204;-69
2022/03/12 02:03:45;;;;;;;30.25;18.05;;;10.20;78.90;;;;;;5105324;28;20669;-69
2022/03/12 02:06:15;;;;;;;30.10;17.45;;;10.10;79.10;;;;;;5089780;28;20260;-69
2022/03/12 02:08:41;;;;;;;27.92;18.70;;;10.10;79.30;;;;;;5104737;28;20309;-70
2022/03/12 02:11:07;;;;;;;26.27;17.25;;;10.10;79.60;;;;;;5106686;28;20192;-71
2022/03/12 02:13:34;;;;;;;27.80;17.52;;;10.20;79.90;;;;;;5105131;28;20224;-70
2022/03/12 02:16:09;;;;;;;26.83;17.50;;;10.20;80.00;;;;;;5106722;28;20200;-70
2022/03/12 02:18:37;;;;;;;31.65;18.50;;;10.20;80.10;;;;;;5106672;28;20593;-71
2022/03/12 02:21:04;;;;;;;29.70;17.83;;;10.20;80.00;;;;;;5106090;28;20200;-70
2022/03/12 02:23:29;;;;;;;27.90;17.38;;;10.20;80.10;;;;;;5107367;28;20213;-72
2022/03/12 02:26:02;;;;;;;30.10;17.67;;;10.20;80.20;;;;;;5103130;28;20267;-71
2022/03/12 02:28:28;;;;;;;29.67;17.63;;;10.20;80.50;;;;;;5106386;28;20196;-71
2022/03/12 02:30:55;;;;;;;31.17;17.80;;;10.20;80.60;;;;;;5105800;28;20185;-71
2022/03/12 02:33:29;;;;;;;31.95;16.90;;;10.20;80.70;;;;;;5105932;28;20188;-70
2022/03/12 02:35:56;;;;;;;28.08;16.73;;;10.20;80.70;;;;;;5092488;28;20189;-71
2022/03/12 02:38:23;;;;;;;26.77;16.83;;;10.20;81.10;;;;;;5109768;28;20886;-70
2022/03/12 02:40:51;;;;;;;26.35;16.05;;;10.30;81.50;;;;;;5110316;28;20213;-70
2022/03/12 02:43:26;;;;;;;31.55;16.50;;;10.30;81.70;;;;;;5109131;28;20181;-71
2022/03/12 02:45:53;;;;;;;28.45;17.75;;;10.30;81.80;;;;;;5110676;28;20187;-71
2022/03/12 02:48:23;;;;;;;29.02;16.92;;;10.30;81.90;;;;;;5109786;27;20237;-72
2022/03/12 02:50:54;;;;;;;26.30;16.95;;;10.30;82.30;;;;;;5109287;28;20212;-70
2022/03/12 02:53:21;;;;;;;25.70;17.17;;;10.30;82.50;;;;;;5110126;28;20204;-70
2022/03/12 02:55:47;;;;;;;26.65;17.73;;;10.30;82.90;;;;;;5111514;28;20189;-72
2022/03/12 02:58:16;;;;;;;28.60;17.30;;;10.40;83.20;;;;;;5107717;28;20211;-71
2022/03/12 03:00:42;;;;;;;28.02;17.45;;;10.40;83.40;;;;;;5111376;28;20181;-72
2022/03/12 03:03:08;;;;;;;27.10;16.63;;;10.40;83.50;;;;;;5109293;27;20287;-69
2022/03/12 03:05:45;;;;;;;34.92;17.30;;;10.40;83.60;;;;;;5110559;28;20234;-69
2022/03/12 03:08:13;;;;;;;28.05;16.75;;;10.40;83.60;;;;;;5106692;28;20713;-68
2022/03/12 03:10:43;;;;;;;28.20;16.40;;;10.40;83.50;;;;;;5108107;28;20185;-69
2022/03/12 03:13:26;;;;;;;25.27;16.52;;;10.40;83.40;;;;;;5108082;28;20271;-69
2022/03/12 03:15:59;;;;;;;29.05;17.40;;;10.30;83.20;;;;;;5108560;28;20185;-70
2022/03/12 03:18:28;;;;;;;24.95;15.85;;;10.30;83.40;;;;;;5110843;28;20276;-70
2022/03/12 03:20:54;;;;;;;30.05;16.55;;;10.40;83.70;;;;;;5109084;28;20596;-70
2022/03/12 03:23:23;;;;;;;29.10;16.52;;;10.30;84.00;;;;;;5108107;28;20185;-70
2022/03/12 03:25:49;;;;;;;28.73;16.25;;;10.30;84.10;;;;;;5110076;28;20266;-71
2022/03/12 03:28:16;;;;;;;25.92;16.45;;;10.40;84.30;;;;;;5106874;28;20227;-70
2022/03/12 03:30:42;;;;;;;24.05;16.10;;;10.30;84.40;;;;;;5106802;28;20185;-70
2022/03/12 03:33:12;;;;;;;25.85;16.08;;;10.30;84.70;;;;;;5106716;28;20197;-70
2022/03/12 03:35:38;;;;;;;25.20;16.17;;;10.30;85.00;;;;;;5107446;28;20187;-70
2022/03/12 03:38:09;;;;;;;24.83;16.83;;;10.30;85.20;;;;;;5107891;28;20189;-70
2022/03/12 03:40:35;;;;;;;24.13;16.08;;;10.30;85.70;;;;;;5107773;28;20220;-70
2022/03/12 03:43:01;;;;;;;24.15;16.02;;;10.30;85.80;;;;;;5107610;28;20208;-70
2022/03/12 03:45:28;;;;;;;29.42;16.25;;;10.40;86.30;;;;;;5109553;28;20225;-70
2022/03/12 03:47:56;;;;;;;22.63;15.90;;;10.40;86.40;;;;;;5107502;28;20215;-70
2022/03/12 03:50:25;;;;;;;23.35;15.20;;;10.40;86.80;;;;;;5107536;28;20188;-70
2022/03/12 03:53:03;;;;;;;22.80;15.05;;;10.40;86.90;;;;;;5109444;28;20200;-70
2022/03/12 03:55:31;;;;;;;23.05;14.85;;;10.40;87.30;;;;;;5091784;28;20189;-71
2022/03/12 03:57:59;;;;;;;23.10;15.00;;;10.50;87.80;;;;;;5108892;28;20181;-70
2022/03/12 04:00:25;;;;;;;25.60;14.57;;;10.40;87.90;;;;;;5104603;28;20185;-70
2022/03/12 04:03:01;;;;;;;23.98;14.02;;;10.50;88.80;;;;;;5108603;28;20209;-70
2022/03/12 04:05:37;;;;;;;23.85;14.40;;;10.50;88.60;;;;;;5108066;28;20253;-70
2022/03/12 04:08:07;;;;;;;23.17;14.80;;;10.50;89.10;;;;;;5106083;28;20415;-70
2022/03/12 04:10:34;;;;;;;19.05;14.75;;;10.90;90.30;;;;;;5105464;28;20392;-70
2022/03/12 04:13:01;;;;;;;20.98;14.35;;;11.20;90.20;;;;;;5106839;28;20412;-70
2022/03/12 04:15:27;;;;;;;20.55;13.93;;;11.40;90.00;;;;;;5110289;28;20185;-69
2022/03/12 04:17:58;;;;;;;19.25;13.18;;;11.10;90.10;;;;;;5105837;28;20277;-71
2022/03/12 04:20:25;;;;;;;21.10;13.75;;;10.90;90.40;;;;;;5103414;28;20185;-69
2022/03/12 04:22:52;;;;;;;19.83;13.45;;;10.80;90.60;;;;;;5105939;28;20206;-69
2022/03/12 04:25:20;;;;;;;21.17;12.68;;;10.70;90.70;;;;;;5110609;28;20185;-69
2022/03/12 04:27:46;;;;;;;21.27;13.02;;;10.60;90.80;;;;;;5107372;28;20180;-69
2022/03/12 04:30:13;;;;;;;18.80;12.20;;;10.60;90.90;;;;;;5107833;28;20180;-70
2022/03/12 04:32:40;;;;;;;17.67;12.07;;;10.60;91.00;;;;;;5107092;28;20185;-68
2022/03/12 04:35:06;;;;;;;16.73;10.90;;;10.60;91.10;;;;;;5109433;28;20245;-69
2022/03/12 04:37:33;;;;;;;16.73;11.50;;;10.60;91.30;;;;;;5108335;28;20600;-69
2022/03/12 04:39:59;;;;;;;21.17;12.02;;;10.60;91.40;;;;;;5108415;28;20237;-69
2022/03/12 04:42:24;;;;;;;16.45;11.60;;;10.70;91.50;;;;;;5107045;28;20240;-71
2022/03/12 04:44:52;;;;;;;17.92;12.13;;;10.60;91.50;;;;;;5104899;28;20212;-71
2022/03/12 04:47:22;;;;;;;17.80;12.50;;;10.60;91.60;;;;;;5110090;28;20173;-71
2022/03/12 04:49:47;;;;;;;17.13;11.60;;;10.60;91.70;;;;;;5107959;28;20313;-71
2022/03/12 04:52:13;;;;;;;17.20;12.43;;;10.60;91.80;;;;;;5109073;28;20268;-71
2022/03/12 04:54:39;;;;;;;18.75;12.63;;;10.60;91.90;;;;;;5107892;28;20185;-70
2022/03/12 04:57:05;;;;;;;18.52;11.90;;;10.70;92.00;;;;;;5108446;28;20260;-70
2022/03/12 04:59:31;;;;;;;17.33;11.85;;;10.70;92.00;;;;;;5102837;28;20197;-68
2022/03/12 05:01:59;;;;;;;17.98;11.20;;;10.70;92.10;;;;;;5107113;28;20609;-69
2022/03/12 05:04:25;;;;;;;19.23;12.25;;;10.60;92.10;;;;;;5104087;28;20540;-70
2022/03/12 05:06:52;;;;;;;19.13;12.27;;;10.60;92.20;;;;;;5108286;28;20174;-70
2022/03/12 05:09:19;;;;;;;18.20;12.25;;;10.60;92.20;;;;;;5106727;28;20534;-70
2022/03/12 05:11:49;;;;;;;20.13;12.60;;;10.50;92.20;;;;;;5109141;28;20263;-69
2022/03/12 05:14:16;;;;;;;19.15;11.95;;;10.50;92.30;;;;;;5105275;28;20185;-68
2022/03/12 05:16:44;;;;;;;20.45;12.18;;;10.40;92.40;;;;;;5107689;28;20181;-68
2022/03/12 05:19:13;;;;;;;22.77;13.07;;;10.40;92.40;;;;;;5107168;28;20184;-70
2022/03/12 05:21:38;;;;;;;19.38;12.35;;;10.40;92.50;;;;;;5107345;28;20294;-72
2022/03/12 05:24:05;;;;;;;17.65;12.23;;;10.30;92.60;;;;;;5105925;28;20189;-72
2022/03/12 05:26:30;;;;;;;18.60;11.75;;;10.30;92.60;;;;;;5108380;28;20185;-71
2022/03/12 05:28:56;;;;;;;17.95;11.90;;;10.30;93.10;;;;;;5106635;28;20185;-69
2022/03/12 05:31:22;;;;;;;16.80;11.73;;;10.20;92.80;;;;;;5103706;28;20195;-70
2022/03/12 05:33:47;;;;;;;21.85;12.18;;;10.20;92.90;;;;;;5105618;28;20272;-70
2022/03/12 05:36:13;;;;;;;17.75;12.30;;;10.20;93.00;;;;;;5105959;28;20197;-73
2022/03/12 05:38:39;;;;;;;17.67;12.43;;;10.20;93.10;;;;;;5107022;28;20264;-70
2022/03/12 05:41:10;;;;;;;19.85;13.13;;;10.10;93.10;;;;;;5104592;28;20280;-69
2022/03/12 05:43:44;;;;;;;18.38;11.90;;;10.10;93.20;;;;;;5102809;28;20205;-71
2022/03/12 05:46:11;;;;;;;18.48;12.35;;;10.00;93.40;;;;;;5104290;28;20557;-72
2022/03/12 05:48:37;;;;;;;16.13;11.35;;;10.00;93.40;;;;;;5106376;28;20246;-72
2022/03/12 05:51:04;;;;;;;17.85;11.85;;;10.00;93.50;;;;;;5104606;28;20185;-71
2022/03/12 05:53:30;;;;;;;16.70;11.43;;;10.00;93.50;;;;;;5106068;28;20193;-71
2022/03/12 05:55:55;;;;;;;20.92;11.68;;;10.00;93.60;;;;;;5105159;28;20209;-71
2022/03/12 05:58:26;;;;;;;17.00;11.13;;;9.90;93.70;;;;;;5106717;28;20208;-70
2022/03/12 06:00:54;;;;;;;17.85;11.05;;;9.90;93.80;;;;;;5102681;28;20196;-70
2022/03/12 06:03:21;;;;;;;18.10;11.02;;;9.90;93.90;;;;;;5104278;28;20225;-69
2022/03/12 06:05:55;;;;;;;16.90;11.57;;;9.90;94.10;;;;;;5103749;28;20177;-69
2022/03/12 06:08:22;;;;;;;17.20;10.57;;;9.80;94.20;;;;;;5104609;28;20181;-68
2022/03/12 06:10:52;;;;;;;13.80;10.20;;;9.80;94.30;;;;;;5106952;28;20189;-68
2022/03/12 06:13:18;;;;;;;18.35;10.75;;;9.80;94.40;;;;;;5109646;28;20259;-70
2022/03/12 06:15:45;;;;;;;13.80;9.60;;;9.80;94.60;;;;;;5107093;28;20189;-69
2022/03/12 06:18:11;;;;;;;15.75;9.45;;;9.80;94.80;;;;;;5110825;28;20696;-68
2022/03/12 06:20:37;;;;;;;16.80;9.65;;;9.80;94.90;;;;;;5105734;28;20185;-68
2022/03/12 06:23:04;;;;;;;15.68;9.90;;;9.80;95.00;;;;;;5110154;28;20303;-69
2022/03/12 06:25:30;;;;;;;15.00;9.45;;;9.80;95.10;;;;;;5109187;28;20289;-70
2022/03/12 06:27:55;;;;;;;13.95;9.80;;;9.80;95.20;;;;;;5108869;28;20220;-68
2022/03/12 06:30:24;;;;;;;14.00;9.55;;;9.80;95.30;;;;;;5109045;28;20181;-69
2022/03/12 06:32:51;;;;;;;15.45;10.15;;;9.80;95.40;;;;;;5110438;28;20407;-68
2022/03/12 06:35:17;;;;;;;15.75;10.05;;;9.80;95.50;;;;;;5107732;28;20230;-70
2022/03/12 06:37:44;;;;;;;17.17;9.85;;;9.80;95.70;;;;;;5109907;28;20185;-69
2022/03/12 06:40:14;;;;;;;14.65;9.85;;;9.80;95.80;;;;;;5110132;28;20611;-68
2022/03/12 06:42:42;;;;;;;14.77;9.57;;;9.80;95.90;;;;;;5107312;28;20240;-70
2022/03/12 06:45:09;;;;;;;13.43;9.68;;;9.80;96.00;;;;;;5105773;28;20221;-69
2022/03/12 06:47:35;;;;;;;17.40;9.95;;;9.80;96.10;;;;;;5110077;28;20177;-69
2022/03/12 06:50:01;;;;;;;14.25;9.52;;;9.90;96.20;;;;;;5109833;28;20213;-70
2022/03/12 06:52:28;;;;;;;13.45;9.27;;;9.90;96.30;;;;;;5109516;28;20211;-70
2022/03/12 06:54:54;;;;;;;14.75;9.38;;;9.90;96.40;;;;;;5108013;28;20397;-71
2022/03/12 06:57:20;;;;;;;13.27;9.27;;;9.90;96.50;;;;;;5110100;28;20267;-71
2022/03/12 06:59:46;;;;;;;14.73;9.32;;;9.90;96.60;;;;;;5106746;28;20193;-70
2022/03/12 07:02:12;;;;;;;13.90;9.25;;;9.90;96.70;;;;;;5106942;27;20230;-71
2022/03/12 07:04:38;;;;;;;13.75;8.43;;;9.90;96.80;;;;;;5109421;28;20256;-69
2022/03/12 07:07:04;;;;;;;12.48;8.40;;;9.90;96.90;;;;;;5110427;28;20177;-69
2022/03/12 07:09:34;;;;;;;11.63;8.27;;;9.90;97.00;;;;;;5106928;28;20181;-70
2022/03/12 07:12:00;;;;;;;13.15;9.18;;;10.00;97.10;;;;;;5108797;28;20197;-69
2022/03/12 07:14:28;;;;;;;14.18;8.75;;;10.00;97.20;;;;;;5106247;28;20241;-69
2022/03/12 07:16:55;;;;;;;11.90;8.52;;;10.00;97.30;;;;;;5107135;28;20193;-70
2022/03/12 07:19:21;;;;;;;11.32;8.10;;;10.00;97.40;;;;;;5108593;28;20213;-70
2022/03/12 07:21:49;;;;;;;13.52;9.38;;;10.10;97.50;;;;;;5108040;28;20296;-70
2022/03/12 07:24:16;;;;;;;14.82;8.57;;;10.10;97.60;;;;;;5109891;28;20201;-72
2022/03/12 07:26:42;;;;;;;13.98;8.60;;;10.10;97.70;;;;;;5107945;28;20177;-70
2022/03/12 07:29:07;;;;;;;11.93;8.30;;;10.10;97.80;;;;;;5109018;28;20653;-71
2022/03/12 07:31:37;;;;;;;13.82;8.55;;;10.10;97.90;;;;;;5108032;28;20212;-70
2022/03/12 07:34:05;;;;;;;12.98;8.43;;;10.10;98.00;;;;;;5107618;28;20250;-70
2022/03/12 07:36:31;;;;;;;11.73;8.73;;;10.20;98.10;;;;;;5108894;28;20660;-70
2022/03/12 07:38:58;;;;;;;11.38;8.57;;;10.20;98.20;;;;;;5107863;28;20196;-69
2022/03/12 07:41:24;;;;;;;11.93;8.13;;;10.20;98.30;;;;;;5107007;28;20205;-71
2022/03/12 07:43:50;;;;;;;11.93;8.50;;;10.30;98.30;;;;;;5107179;28;20229;-69
2022/03/12 07:46:15;;;;;;;16.20;8.73;;;10.30;98.40;;;;;;5107410;28;20177;-69
2022/03/12 07:48:41;;;;;;;11.77;8.82;;;10.30;98.40;;;;;;5110147;28;20181;-69
2022/03/12 07:51:07;;;;;;;15.95;8.57;;;10.40;98.50;;;;;;5106569;28;20177;-69
2022/03/12 07:53:33;;;;;;;12.38;8.50;;;10.40;98.40;;;;;;5107707;28;21229;-69
2022/03/12 07:55:59;;;;;;;14.30;8.40;;;10.40;98.70;;;;;;5110350;28;20185;-71
2022/03/12 07:58:27;;;;;;;12.25;8.35;;;10.50;98.80;;;;;;5109067;28;20268;-68
2022/03/12 08:00:56;;;;;;;12.30;8.48;;;10.50;98.80;;;;;;5108793;28;20188;-69
2022/03/12 08:03:23;;;;;;;10.65;7.68;;;10.60;98.90;;;;;;5107761;28;20212;-69
2022/03/12 08:05:50;;;;;;;11.68;8.48;;;10.60;99.00;;;;;;5108449;27;20226;-71
2022/03/12 08:08:17;;;;;;;13.00;8.75;;;10.70;99.00;;;;;;5108232;28;20185;-70
2022/03/12 08:13:29;;;;;;;12.32;7.93;;;10.80;99.10;;;;;;5106846;28;20272;-69
2022/03/12 08:15:55;;;;;;;11.10;7.88;;;10.80;99.20;;;;;;5089816;28;20207;-70
2022/03/12 08:18:22;;;;;;;10.75;7.93;;;10.90;99.20;;;;;;5108282;28;20653;-71
2022/03/12 08:20:48;;;;;;;10.80;8.15;;;11.00;99.30;;;;;;5108468;28;20186;-69
2022/03/12 08:23:14;;;;;;;10.85;7.90;;;11.10;99.30;;;;;;5104773;28;20255;-70
2022/03/12 08:25:42;;;;;;;14.38;8.20;;;11.20;99.30;;;;;;5108548;28;20641;-70
2022/03/12 08:28:08;;;;;;;9.70;7.10;;;11.30;99.30;;;;;;5108338;28;20264;-68
2022/03/12 08:30:35;;;;;;;14.80;7.82;;;11.40;99.40;;;;;;5107595;28;20268;-68
2022/03/12 08:33:02;;;;;;;12.68;7.20;;;11.50;99.50;;;;;;5108064;28;20193;-69
2022/03/12 08:35:27;;;;;;;;;;;11.60;99.90;;;;;;5106659;28;20027;-67
2022/03/12 08:37:54;;;;;;;9.88;7.22;;;11.80;99.80;;;;;;5106817;28;20432;-71
2022/03/12 08:40:20;;;;;;;11.63;7.20;;;12.90;98.40;;;;;;5107772;28;20419;-68
2022/03/12 08:42:46;;;;;;;9.60;6.95;;;14.10;95.60;;;;;;5107540;28;20475;-69
2022/03/12 08:45:12;;;;;;;10.80;6.33;;;15.30;92.70;;;;;;5106254;28;20581;-67
2022/03/12 08:47:39;;;;;;;8.98;6.45;;;16.30;89.40;;;;;;5105991;28;20460;-69
2022/03/12 08:50:08;;;;;;;9.75;6.20;;;16.90;85.00;;;;;;5102693;28;20423;-70
2022/03/12 08:52:35;;;;;;;8.20;6.07;;;17.30;81.40;;;;;;5108412;28;20396;-69
2022/03/12 08:55:01;;;;;;;7.88;5.65;;;17.70;79.60;;;;;;5106714;28;20420;-68
2022/03/12 08:57:27;;;;;;;8.20;5.57;;;18.20;77.10;;;;;;5107464;28;20396;-68
2022/03/12 08:59:53;;;;;;;11.03;5.40;;;18.90;73.20;;;;;;5102431;28;20416;-70
2022/03/12 09:02:20;;;;;;;10.35;5.03;;;19.50;68.50;;;;;;5107042;28;20197;-70
2022/03/12 09:04:47;;;;;;;7.63;4.30;;;18.80;72.80;;;;;;5108687;28;20968;-70
2022/03/12 09:07:13;;;;;;;8.50;3.97;;;18.40;74.80;;;;;;5106266;28;20184;-68
2022/03/12 09:09:39;;;;;;;7.57;3.80;;;18.10;75.80;;;;;;5107230;28;20196;-69
2022/03/12 09:12:06;;;;;;;8.98;4.00;;;17.60;75.60;;;;;;5106003;28;20277;-68
2022/03/12 09:14:34;;;;;;;9.27;4.50;;;16.90;76.80;;;;;;5104826;28;20894;-68
2022/03/12 09:17:02;;;;;;;10.50;4.20;;;16.90;74.00;;;;;;5107038;28;20908;-68
2022/03/12 09:19:29;;;;;;;12.00;4.13;;;16.70;74.70;;;;;;5108480;28;20177;-69
2022/03/12 09:21:56;;;;;;;;;;;15.90;77.20;;;;;;5109482;28;20035;-68
2022/03/12 09:24:21;;;;;;;;;;;15.30;78.80;;;;;;5107006;28;19919;-69
2022/03/12 09:26:48;;;;;;;;;;;14.90;80.60;;;;;;5107853;28;19915;-67
2022/03/12 09:29:13;;;;;;;;;;;14.60;81.80;;;;;;5108406;28;19908;-68
2022/03/12 09:31:39;;;;;;;;;;;14.50;82.90;;;;;;5107265;28;19911;-68
2022/03/12 09:34:06;;;;;;;;;;;14.50;83.10;;;;;;5107975;28;20534;-68
2022/03/12 09:36:32;;;;;;;;;;;14.40;83.30;;;;;;5107206;28;19922;-69
2022/03/12 09:38:57;;;;;;;;;;;14.40;83.30;;;;;;5107034;28;19916;-69
2022/03/12 09:41:23;;;;;;;;;;;14.30;83.10;;;;;;5106443;28;19966;-70
2022/03/12 09:43:49;;;;;;;;;;;14.30;83.40;;;;;;5106258;28;19916;-69
2022/03/12 09:46:14;;;;;;;;;;;14.40;84.80;;;;;;5107905;28;19912;-68
2022/03/12 09:48:41;;;;;;;;;;;14.80;83.90;;;;;;5107046;28;19911;-69
2022/03/12 09:51:06;;;;;;;;;;;15.30;83.60;;;;;;5106659;28;20252;-70
2022/03/12 09:53:34;;;;;;;;;;;15.60;83.10;;;;;;5107812;28;20009;-69
2022/03/12 09:56:00;;;;;;;;;;;15.80;82.60;;;;;;5108983;28;19987;-67
2022/03/12 09:58:25;;;;;;;7.75;3.70;;;15.90;82.40;;;;;;5106425;28;20283;-69
2022/03/12 10:00:51;;;;;;;;;;;15.90;81.10;;;;;;5108420;28;20024;-70
2022/03/12 10:03:17;;;;;;;;;;;15.60;80.10;;;;;;5107061;28;20372;-70
2022/03/12 10:05:42;;;;;;;;;;;15.30;80.40;;;;;;5108911;28;19911;-69
2022/03/12 10:08:08;;;;;;;;;;;15.00;81.30;;;;;;5105002;28;19950;-68
2022/03/12 10:10:34;;;;;;;;;;;14.70;81.40;;;;;;5108427;28;19911;-68
2022/03/12 10:13:00;;;;;;;;;;;14.70;82.10;;;;;;5107700;28;19915;-68
2022/03/12 10:15:25;;;;;;;;;;;14.80;82.30;;;;;;5106310;28;20364;-69
2022/03/12 10:17:51;;;;;;;;;;;14.80;81.70;;;;;;5108584;28;19915;-70
2022/03/12 10:20:17;;;;;;;;;;;15.10;82.30;;;;;;5108122;28;19912;-69
2022/03/12 10:22:43;;;;;;;;;;;15.20;80.60;;;;;;5107550;28;19915;-70
2022/03/12 10:25:09;;;;;;;;;;;15.20;80.30;;;;;;5108605;28;19908;-71
2022/03/12 10:27:35;;;;;;;;;;;15.30;80.50;;;;;;5108783;28;19911;-70
2022/03/12 10:30:02;;;;;;;;;;;15.40;80.70;;;;;;5107359;28;19917;-72
2022/03/12 10:32:32;;;;;;;;;;;15.50;79.20;;;;;;5106720;28;19912;-71
2022/03/12 10:34:59;;;;;;;;;;;15.60;78.90;;;;;;5105948;28;19908;-70
2022/03/12 10:37:26;;;;;;;;;;;15.80;78.70;;;;;;5107332;28;19907;-70
2022/03/12 10:40:03;;;;;;;;;;;15.90;78.20;;;;;;5108664;28;20431;-71
2022/03/12 10:42:30;;;;;;;;;;;16.00;78.10;;;;;;5107238;28;20263;-70
2022/03/12 10:45:03;;;;;;;;;;;16.20;77.90;;;;;;5106440;28;20004;-69
2022/03/12 10:47:28;;;;;;;;;;;16.50;77.00;;;;;;5108843;28;19907;-68
2022/03/12 10:49:58;;;;;;;;;;;16.50;76.80;;;;;;5107011;28;20351;-71
2022/03/12 10:52:27;;;;;;;;;;;16.30;76.50;;;;;;5107241;28;20002;-69
2022/03/12 10:54:53;;;;;;;;;;;16.20;76.90;;;;;;5107602;28;19914;-70
2022/03/12 10:57:19;;;;;;;;;;;16.20;77.50;;;;;;5111582;28;19920;-68
2022/03/12 10:59:45;;;;;;;;;;;16.10;76.50;;;;;;5110327;28;19911;-67
2022/03/12 11:02:11;;;;;;;;;;;15.90;77.10;;;;;;5111134;28;19920;-70
2022/03/12 11:04:37;;;;;;;;;;;15.70;77.60;;;;;;5107936;28;20002;-69
2022/03/12 11:07:21;;;;;;;;;;;15.50;78.00;;;;;;5111420;28;20352;-71
2022/03/12 11:09:47;;;;;;;9.85;4.20;;;15.30;78.40;;;;;;5109579;28;20192;-70
2022/03/12 11:12:30;;;;;;;7.13;4.03;;;15.20;78.00;;;;;;5108531;28;20416;-70
2022/03/12 11:15:15;;;;;;;8.57;4.35;;;15.80;75.00;;;;;;5108827;28;20904;-70
2022/03/12 11:17:45;;;;;;;8.27;3.95;;;16.20;74.40;;;;;;5108647;28;20419;-70
2022/03/12 11:20:27;;;;;;;8.23;3.53;;;16.40;74.70;;;;;;5108912;28;20424;-70
2022/03/12 11:23:16;;;;;;;7.97;2.95;;;16.60;72.00;;;;;;5106980;28;20475;-70
2022/03/12 11:25:58;;;;;;;7.87;3.10;;;16.90;70.20;;;;;;5088870;28;20396;-70
2022/03/12 11:28:25;;;;;;;8.60;2.90;;;17.00;71.00;;;;;;5109035;28;20415;-71
2022/03/12 11:30:51;;;;;;;7.30;2.90;;;17.20;69.80;;;;;;5108855;28;20407;-70
2022/03/12 11:33:18;;;;;;;7.53;2.70;;;17.40;68.70;;;;;;5109309;28;20401;-69
2022/03/12 11:35:45;;;;;;;6.93;2.70;;;17.60;66.00;;;;;;5108854;28;20423;-69
2022/03/12 11:38:21;;;;;;;6.28;2.70;;;17.80;66.30;;;;;;5109624;28;20415;-69
2022/03/12 11:41:01;;;;;;;5.18;2.60;;;18.00;64.20;;;;;;5108143;28;20503;-71
2022/03/12 11:43:32;;;;;;;5.68;2.40;;;18.00;65.40;;;;;;5104404;28;20938;-69
2022/03/12 11:46:03;;;;;;;6.72;2.55;;;18.00;63.00;;;;;;5107524;28;20415;-72
2022/03/12 11:48:31;;;;;;;6.00;2.53;;;17.80;61.60;;;;;;5108930;28;20406;-70
2022/03/12 11:51:00;;;;;;;5.53;2.40;;;17.60;62.30;;;;;;5109007;28;20499;-70
2022/03/12 11:53:26;;;;;;;7.13;2.70;;;17.60;65.60;;;;;;5107031;28;20903;-69
2022/03/12 11:55:51;;;;;;;8.95;2.83;;;17.70;64.10;;;;;;5105787;28;20416;-70
2022/03/12 11:58:18;;;;;;;6.75;2.70;;;17.70;64.30;;;;;;5107615;28;20489;-70
2022/03/12 12:00:48;;;;;;;5.88;2.50;;;17.60;62.70;;;;;;5106453;28;20408;-71
2022/03/12 12:03:15;;;;;;;7.47;3.13;;;17.50;63.60;;;;;;5107811;28;20569;-71
2022/03/12 12:05:44;;;;;;;8.25;2.95;;;17.30;63.70;;;;;;5104946;28;20480;-71
2022/03/12 12:08:14;;;;;;;7.15;2.70;;;17.20;64.40;;;;;;5106262;28;20412;-70
2022/03/12 12:10:42;;;;;;;5.75;2.70;;;17.30;66.10;;;;;;5108632;28;20421;-71
2022/03/12 12:13:18;;;;;;;7.38;2.67;;;17.40;65.20;;;;;;5106186;28;20435;-70
2022/03/12 12:15:45;;;;;;;6.38;2.63;;;17.50;66.20;;;;;;5105824;28;20404;-71
2022/03/12 12:18:12;;;;;;;6.00;2.73;;;17.60;65.80;;;;;;5107877;28;20506;-70
2022/03/12 12:20:40;;;;;;;7.38;2.63;;;17.70;63.20;;;;;;5105685;27;20418;-71
2022/03/12 12:23:06;;;;;;;7.10;2.90;;;17.70;63.00;;;;;;5108109;28;21657;-71
2022/03/12 12:25:36;;;;;;;7.03;2.58;;;17.80;62.00;;;;;;5109142;28;20403;-70
2022/03/12 12:28:23;;;;;;;6.97;2.70;;;17.80;62.90;;;;;;5106225;28;20818;-70
2022/03/12 12:30:50;;;;;;;6.82;2.50;;;17.80;63.60;;;;;;5105817;28;20415;-71
2022/03/12 12:33:18;;;;;;;6.88;2.50;;;17.90;60.80;;;;;;5108295;28;20413;-69
2022/03/12 12:35:46;;;;;;;6.53;2.70;;;18.10;60.70;;;;;;5106973;28;20411;-70
2022/03/12 12:38:14;;;;;;;7.10;2.80;;;18.30;60.80;;;;;;5108403;28;20507;-69
2022/03/12 12:40:48;;;;;;;4.90;2.60;;;18.40;60.30;;;;;;5106396;28;20416;-69
2022/03/12 12:43:31;;;;;;;7.43;2.80;;;18.40;58.60;;;;;;5106442;28;20404;-71
2022/03/12 12:45:57;;;;;;;6.97;2.50;;;18.30;59.40;;;;;;5107624;28;20416;-70
2022/03/12 12:48:41;;;;;;;8.27;2.83;;;18.30;58.50;;;;;;5107163;28;20405;-70
2022/03/12 12:51:17;;;;;;;5.63;2.58;;;18.30;60.40;;;;;;5108003;28;20411;-69
2022/03/12 12:53:46;;;;;;;6.22;2.35;;;18.30;57.60;;;;;;5107288;28;20556;-69